Time;durP1;ratioP1;P1;durP2;ratioP2;P2;SDS_P1;SDS_P2;PMS_P1;PMS_P2;Temp;Humidity;BMP_temperature;BMP_pressure;BME280_temperature;BME280_humidity;BME280_pressure;Samples;Min_cycle;Max_cycle;Signal;HPM_P1;HPM_P2
2021/03/04 00:01:21;;;;;;;52.97;18.23;;;;;;;5.56;47.11;94828.13;5089900;28;20043;-76
2021/03/04 00:03:46;;;;;;;75.90;29.00;;;;;;;5.58;47.25;94824.19;5088238;28;20028;-76
2021/03/04 00:06:11;;;;;;;69.10;25.13;;;;;;;5.45;47.82;94827.28;5088150;28;20048;-77
2021/03/04 00:08:37;;;;;;;56.72;24.08;;;;;;;5.36;48.41;94823.53;5088381;28;20024;-77
2021/03/04 00:11:02;;;;;;;65.25;25.00;;;;;;;5.37;47.91;94825.13;5088209;28;20026;-76
2021/03/04 00:13:28;;;;;;;57.13;23.63;;;;;;;5.32;48.49;94817.16;5088217;28;20510;-76
2021/03/04 00:15:54;;;;;;;61.65;23.63;;;;;;;5.29;48.56;94815.03;5087856;28;20080;-76
2021/03/04 00:18:19;;;;;;;49.70;20.63;;;;;;;5.23;48.53;94811.56;5088068;28;20027;-76
2021/03/04 00:20:45;;;;;;;46.85;18.85;;;;;;;5.21;48.72;94811.00;5088417;28;20016;-76
2021/03/04 00:23:10;;;;;;;46.83;19.45;;;;;;;5.13;48.84;94800.91;5089420;28;20077;-76
2021/03/04 00:25:36;;;;;;;37.22;15.68;;;;;;;5.12;48.61;94808.06;5089506;28;20012;-76
2021/03/04 00:28:03;;;;;;;33.55;14.18;;;;;;;5.08;48.67;94800.91;5087969;28;20122;-76
2021/03/04 00:30:29;;;;;;;28.77;12.52;;;;;;;5.06;48.61;94803.78;5089662;28;20024;-76
2021/03/04 00:32:55;;;;;;;33.40;12.57;;;;;;;5.13;48.68;94799.09;5088337;28;20387;-76
2021/03/04 00:35:21;;;;;;;37.45;13.13;;;;;;;5.19;48.63;94799.91;5089379;28;20089;-76
2021/03/04 00:37:47;;;;;;;26.88;11.65;;;;;;;5.16;48.61;94795.13;5087931;28;20036;-76
2021/03/04 00:40:15;;;;;;;23.63;10.98;;;;;;;5.19;48.59;94794.59;5087932;28;20502;-76
2021/03/04 00:42:40;;;;;;;24.10;10.00;;;;;;;5.16;48.43;94797.78;5089263;28;20483;-76
2021/03/04 00:45:12;;;;;;;25.80;12.05;;;;;;;5.20;48.52;94785.66;5087896;28;20039;-76
2021/03/04 00:47:38;;;;;;;27.38;10.35;;;;;;;5.21;48.33;94777.47;5087881;28;20028;-76
2021/03/04 00:50:05;;;;;;;31.70;12.25;;;;;;;5.19;48.55;94786.69;5089412;28;20039;-77
2021/03/04 00:52:31;;;;;;;29.52;11.85;;;;;;;5.19;48.70;94779.56;5088911;28;20028;-76
2021/03/04 00:54:56;;;;;;;27.88;12.15;;;;;;;5.14;48.80;94763.66;5087821;28;20039;-76
2021/03/04 00:57:22;;;;;;;31.33;13.30;;;;;;;5.11;48.68;94768.66;5089089;28;20028;-76
2021/03/04 00:59:48;;;;;;;34.95;14.13;;;;;;;5.07;49.05;94773.69;5087750;28;20061;-76
2021/03/04 01:02:13;;;;;;;33.95;12.65;;;;;;;5.07;48.63;94773.69;5090135;28;20039;-76
2021/03/04 01:04:38;;;;;;;29.80;12.55;;;;;;;5.00;48.71;94760.69;5091367;28;20130;-76
2021/03/04 01:07:04;;;;;;;26.23;11.38;;;;;;;4.89;48.83;94768.81;5092841;28;20084;-77
2021/03/04 01:09:29;;;;;;;30.42;12.65;;;;;;;4.82;48.96;94756.63;5091359;28;20028;-77
2021/03/04 01:11:55;;;;;;;28.88;11.77;;;;;;;4.75;49.54;94756.03;5093169;28;20085;-77
2021/03/04 01:14:20;;;;;;;27.58;11.90;;;;;;;4.77;49.37;94759.22;5092428;28;20067;-77
2021/03/04 01:16:46;;;;;;;31.02;11.70;;;;;;;4.71;49.42;94743.63;5091353;28;20020;-77
2021/03/04 01:19:11;;;;;;;24.90;10.73;;;;;;;4.64;49.90;94749.13;5091278;28;20031;-76
2021/03/04 01:21:37;;;;;;;25.52;10.70;;;;;;;4.61;50.17;94747.75;5091907;28;20410;-76
2021/03/04 01:24:02;;;;;;;22.83;9.35;;;;;;;4.56;50.20;94733.72;5092170;28;20024;-77
2021/03/04 01:26:28;;;;;;;21.20;9.82;;;;;;;4.55;49.95;94740.84;5090836;28;20023;-76
2021/03/04 01:28:53;;;;;;;24.17;8.77;;;;;;;4.43;50.24;94742.88;5091093;28;20026;-77
2021/03/04 01:31:18;;;;;;;23.50;9.35;;;;;;;4.43;50.43;94742.88;5090861;28;20031;-77
2021/03/04 01:33:44;;;;;;;20.40;8.85;;;;;;;4.41;50.39;94734.41;5090923;28;20024;-77
2021/03/04 01:36:09;;;;;;;24.30;8.95;;;;;;;4.38;50.70;94719.88;5090872;28;20024;-77
2021/03/04 01:38:35;;;;;;;26.38;9.60;;;;;;;4.38;50.56;94719.09;5090699;28;20450;-79
2021/03/04 01:41:00;;;;;;;23.88;9.20;;;;;;;4.26;51.05;94716.63;5091050;28;20103;-79
2021/03/04 01:43:26;;;;;;;22.50;9.38;;;;;;;4.19;51.29;94716.84;5090839;28;20471;-78
2021/03/04 01:45:51;;;;;;;25.50;11.10;;;;;;;4.16;51.43;94711.25;5090729;28;20046;-79
2021/03/04 01:48:16;;;;;;;24.58;11.20;;;;;;;4.13;51.45;94704.66;5090048;28;20384;-79
2021/03/04 01:50:42;;;;;;;28.52;11.48;;;;;;;4.05;51.82;94699.84;5091327;28;20093;-76
2021/03/04 01:53:08;;;;;;;23.30;10.57;;;;;;;4.01;51.96;94707.44;5091776;28;20070;-76
2021/03/04 01:55:34;;;;;;;23.85;8.60;;;;;;;3.97;51.80;94705.56;5090344;28;20020;-76
2021/03/04 01:57:59;;;;;;;20.73;8.43;;;;;;;3.97;51.80;94698.44;5090539;28;20143;-76
2021/03/04 02:00:25;;;;;;;21.27;8.80;;;;;;;4.01;51.68;94701.38;5090582;28;20099;-76
2021/03/04 02:02:50;;;;;;;20.15;9.07;;;;;;;4.02;51.78;94695.84;5091569;28;20020;-76
2021/03/04 02:05:17;;;;;;;23.55;10.50;;;;;;;4.06;51.51;94701.41;5090270;28;20347;-76
2021/03/04 02:08:01;;;;;;;22.45;9.38;;;;;;;4.00;51.91;94690.00;5090029;28;20023;-76
2021/03/04 02:10:45;;;;;;;19.73;8.98;;;;;;;4.00;52.02;94691.88;5091424;28;20085;-76
2021/03/04 02:13:20;;;;;;;26.77;11.25;;;;;;;4.01;51.80;94693.47;5090032;28;20024;-76
2021/03/04 02:16:03;;;;;;;35.03;13.65;;;;;;;3.92;51.84;94689.69;5089992;28;20050;-77
2021/03/04 02:18:33;;;;;;;44.92;18.35;;;;;;;3.90;52.17;94689.13;5090289;28;20054;-77
2021/03/04 02:21:16;;;;;;;44.05;18.92;;;;;;;3.90;52.23;94694.41;5087518;28;20053;-77
2021/03/04 02:24:19;;;;;;;37.97;14.50;;;;;;;3.82;52.45;94691.16;5089781;28;20447;-78
2021/03/04 02:27:03;;;;;;;27.05;11.02;;;;;;;3.81;52.48;94694.88;5089946;28;20093;-77
2021/03/04 02:29:54;;;;;;;23.10;10.45;;;;;;;3.78;52.54;94697.19;5090139;28;20024;-78
2021/03/04 02:32:26;;;;;;;26.48;9.55;;;;;;;3.71;52.62;94688.72;5089899;28;20031;-78
2021/03/04 02:34:58;;;;;;;25.70;9.35;;;;;;;3.74;52.66;94696.09;5089746;28;20167;-78
2021/03/04 02:37:28;;;;;;;29.10;11.82;;;;;;;3.71;52.90;94688.72;5091070;28;20036;-78
2021/03/04 02:39:54;;;;;;;29.73;12.32;;;;;;;3.69;52.77;94690.81;5090886;28;20097;-78
2021/03/04 02:42:22;;;;;;;24.92;12.10;;;;;;;3.66;53.06;94681.53;5089669;28;20142;-77
2021/03/04 02:44:54;;;;;;;24.67;10.20;;;;;;;3.67;53.27;94687.63;5089247;28;20048;-77
2021/03/04 02:47:21;;;;;;;24.13;10.43;;;;;;;3.51;53.63;94689.31;5089654;28;20039;-78
2021/03/04 02:49:47;;;;;;;20.02;9.35;;;;;;;3.56;53.17;94684.88;5089475;28;20154;-78
2021/03/04 02:52:13;;;;;;;18.40;9.27;;;;;;;3.54;53.44;94688.78;5090576;28;20031;-78
2021/03/04 02:54:40;;;;;;;22.17;8.88;;;;;;;3.49;53.33;94686.13;5089478;28;20020;-78
2021/03/04 02:57:08;;;;;;;18.50;7.97;;;;;;;3.49;53.41;94694.03;5089008;28;20539;-77
2021/03/04 02:59:37;;;;;;;19.40;8.38;;;;;;;3.51;53.17;94698.00;5090578;28;20019;-77
2021/03/04 03:02:03;;;;;;;23.83;9.45;;;;;;;3.58;53.36;94700.44;5089018;28;20544;-77
2021/03/04 03:04:30;;;;;;;22.83;9.38;;;;;;;3.60;53.12;94693.06;5089051;28;20052;-77
2021/03/04 03:06:56;;;;;;;15.32;7.25;;;;;;;3.58;52.78;94700.44;5090496;28;20044;-77
2021/03/04 03:09:22;;;;;;;16.48;7.53;;;;;;;3.51;52.97;94691.94;5089052;28;20107;-76
2021/03/04 03:11:49;;;;;;;18.17;7.40;;;;;;;3.55;53.18;94691.19;5090384;28;20097;-77
2021/03/04 03:14:15;;;;;;;19.75;8.20;;;;;;;3.51;52.76;94689.31;5088729;28;20041;-77
2021/03/04 03:16:40;;;;;;;22.80;9.43;;;;;;;3.44;53.26;94689.50;5090209;28;20082;-77
2021/03/04 03:19:06;;;;;;;22.17;9.05;;;;;;;3.45;53.50;94696.34;5088804;28;20478;-78
2021/03/04 03:21:32;;;;;;;19.20;9.23;;;;;;;3.44;53.52;94689.50;5090183;28;20020;-77
2021/03/04 03:23:57;;;;;;;20.75;9.55;;;;;;;3.31;53.94;94684.59;5088329;28;20032;-77
2021/03/04 03:26:23;;;;;;;21.17;9.23;;;;;;;3.32;54.02;94686.22;5088261;28;20022;-78
2021/03/04 03:28:48;;;;;;;17.27;8.82;;;;;;;3.30;53.92;94683.81;5088894;28;20073;-78
2021/03/04 03:31:20;;;;;;;18.23;8.32;;;;;;;3.30;53.69;94675.91;5088677;28;20480;-78
2021/03/04 03:33:46;;;;;;;19.77;8.97;;;;;;;3.32;53.60;94675.66;5090002;28;20024;-78
2021/03/04 03:36:12;;;;;;;18.88;8.70;;;;;;;3.29;53.30;94670.88;5088529;28;20028;-77
2021/03/04 03:38:38;;;;;;;20.85;10.15;;;;;;;3.21;53.72;94667.63;5088690;28;20062;-77
2021/03/04 03:41:05;;;;;;;19.98;8.43;;;;;;;3.22;53.28;94671.09;5088731;28;20051;-77
2021/03/04 03:43:32;;;;;;;19.08;8.02;;;;;;;3.27;53.58;94673.75;5089389;28;20031;-77
2021/03/04 03:45:58;;;;;;;20.27;9.27;;;;;;;3.22;53.70;94668.44;5089684;28;20471;-77
2021/03/04 03:48:27;;;;;;;18.75;8.80;;;;;;;3.18;54.13;94676.03;5088418;28;20024;-77
2021/03/04 03:50:54;;;;;;;21.23;8.52;;;;;;;3.14;54.12;94669.66;5088603;28;20024;-77
2021/03/04 03:53:21;;;;;;;17.00;8.73;;;;;;;3.02;54.42;94674.28;5088227;28;20024;-76
2021/03/04 03:55:48;;;;;;;19.00;9.73;;;;;;;3.03;54.31;94664.53;5089862;28;20031;-76
2021/03/04 03:58:17;;;;;;;25.98;11.25;;;;;;;3.03;54.55;94664.53;5089659;28;20154;-76
2021/03/04 04:00:44;;;;;;;27.63;10.25;;;;;;;3.03;54.47;94667.16;5088392;28;20388;-76
2021/03/04 04:03:10;;;;;;;25.83;11.18;;;;;;;3.08;54.68;94675.13;5089665;28;20055;-76
2021/03/04 04:05:37;;;;;;;30.48;12.68;;;;;;;3.05;54.91;94657.16;5089558;28;20414;-76
2021/03/04 04:08:03;;;;;;;26.83;12.05;;;;;;;3.03;55.04;94661.88;5088369;28;20028;-76
2021/03/04 04:10:31;;;;;;;28.52;12.02;;;;;;;3.04;54.73;94666.13;5087997;28;20363;-76
2021/03/04 04:12:57;;;;;;;27.55;12.00;;;;;;;2.95;55.06;94663.94;5088161;28;20024;-76
2021/03/04 04:15:24;;;;;;;27.33;12.35;;;;;;;2.88;55.53;94659.88;5087917;28;20060;-76
2021/03/04 04:17:50;;;;;;;28.45;12.90;;;;;;;2.89;55.47;94661.47;5089099;28;21026;-77
2021/03/04 04:20:20;;;;;;;29.27;12.82;;;;;;;2.87;55.28;94660.91;5087511;28;20028;-76
2021/03/04 04:22:47;;;;;;;27.63;12.63;;;;;;;2.84;55.52;94658.78;5088198;28;20502;-76
2021/03/04 04:25:13;;;;;;;30.48;13.65;;;;;;;2.83;55.91;94657.97;5088136;28;20031;-76
2021/03/04 04:27:43;;;;;;;26.50;11.93;;;;;;;2.89;55.67;94661.47;5088313;28;20053;-77
2021/03/04 04:30:09;;;;;;;33.30;12.77;;;;;;;2.85;55.68;94650.63;5088335;28;20116;-77
2021/03/04 04:32:35;;;;;;;24.63;12.07;;;;;;;2.84;55.48;94649.03;5088975;28;20032;-77
2021/03/04 04:35:00;;;;;;;29.95;12.57;;;;;;;2.85;55.43;94649.81;5087650;28;20101;-76
2021/03/04 04:37:26;;;;;;;21.73;10.05;;;;;;;2.80;55.50;94648.72;5089274;28;20028;-76
2021/03/04 04:39:51;;;;;;;20.25;10.25;;;;;;;2.74;55.58;94643.63;5093439;28;20035;-76
2021/03/04 04:42:17;;;;;;;21.45;10.05;;;;;;;2.71;55.78;94644.94;5092064;28;20024;-76
2021/03/04 04:44:42;;;;;;;21.77;9.15;;;;;;;2.73;55.62;94642.84;5091913;28;20479;-76
2021/03/04 04:47:08;;;;;;;26.52;11.30;;;;;;;2.67;55.59;94635.16;5093202;28;20020;-77
2021/03/04 04:49:33;;;;;;;30.67;12.27;;;;;;;2.66;55.95;94630.91;5091251;28;20085;-77
2021/03/04 04:51:59;;;;;;;22.83;10.25;;;;;;;2.67;55.88;94627.25;5091828;28;20028;-78
2021/03/04 04:54:24;;;;;;;25.58;11.05;;;;;;;2.61;55.88;94624.53;5091561;28;20452;-78
2021/03/04 04:56:49;;;;;;;24.88;10.52;;;;;;;2.59;55.80;94621.34;5093227;28;20030;-78
2021/03/04 04:59:15;;;;;;;26.85;12.02;;;;;;;2.61;55.58;94618.47;5092903;28;20042;-78
2021/03/04 05:01:43;;;;;;;22.67;10.57;;;;;;;2.59;55.91;94623.19;5091735;28;20077;-78
2021/03/04 05:04:09;;;;;;;28.50;12.52;;;;;;;2.52;56.30;94615.47;5092754;28;20028;-78
2021/03/04 05:06:34;;;;;;;32.45;17.52;;;;;;;2.51;56.48;94610.47;5092882;28;20059;-78
2021/03/04 05:08:59;;;;;;;53.28;27.10;;;;;;;2.48;56.65;94609.09;5091501;28;20485;-78
2021/03/04 05:11:25;;;;;;;42.03;20.65;;;;;;;2.44;56.91;94610.63;5091586;28;20111;-78
2021/03/04 05:13:50;;;;;;;38.10;20.60;;;;;;;2.45;56.81;94604.34;5091170;28;20472;-78
2021/03/04 05:16:16;;;;;;;29.88;13.07;;;;;;;2.54;56.60;94608.13;5092645;28;20077;-77
2021/03/04 05:18:41;;;;;;;24.75;11.82;;;;;;;2.57;56.24;94605.00;5091100;28;20036;-77
2021/03/04 05:21:08;;;;;;;29.20;13.60;;;;;;;2.58;56.20;94609.22;5092848;28;20028;-77
2021/03/04 05:23:34;;;;;;;29.90;11.23;;;;;;;2.64;56.55;94606.66;5092323;28;20028;-77
2021/03/04 05:26:00;;;;;;;27.67;11.52;;;;;;;2.62;55.99;94599.00;5091100;28;20039;-77
2021/03/04 05:28:25;;;;;;;24.02;11.98;;;;;;;2.66;56.39;94599.31;5090857;28;20028;-78
2021/03/04 05:30:52;;;;;;;25.85;10.07;;;;;;;2.73;55.74;94602.56;5090925;28;20031;-77
2021/03/04 05:33:21;;;;;;;18.42;9.02;;;;;;;2.73;55.97;94597.31;5090964;28;20039;-78
2021/03/04 05:35:46;;;;;;;23.25;9.25;;;;;;;2.79;55.94;94596.34;5090986;28;20023;-77
2021/03/04 05:38:12;;;;;;;20.33;10.65;;;;;;;2.87;55.75;94601.16;5090914;28;20450;-75
2021/03/04 05:40:38;;;;;;;21.05;10.27;;;;;;;2.96;55.36;94599.66;5090452;28;20032;-75
2021/03/04 05:43:04;;;;;;;24.73;11.32;;;;;;;3.03;55.87;94590.78;5090567;28;20047;-78
2021/03/04 05:45:30;;;;;;;30.27;11.05;;;;;;;3.10;55.58;94594.03;5092036;28;20024;-78
2021/03/04 05:47:56;;;;;;;31.80;12.93;;;;;;;3.15;55.06;94592.22;5090146;28;20123;-78
2021/03/04 05:50:26;;;;;;;39.75;13.55;;;;;;;3.20;54.65;94594.91;5090706;28;20047;-77
2021/03/04 05:53:12;;;;;;;39.92;15.00;;;;;;;3.31;54.90;94587.13;5090340;28;20103;-78
2021/03/04 05:55:38;;;;;;;44.33;18.02;;;;;;;3.33;55.11;94582.38;5089254;28;20016;-78
2021/03/04 05:58:05;;;;;;;40.88;17.48;;;;;;;3.35;54.99;94593.47;5090388;28;20044;-78
2021/03/04 06:00:30;;;;;;;43.05;19.50;;;;;;;3.42;54.67;94596.72;5091736;28;20439;-77
2021/03/04 06:02:57;;;;;;;49.20;20.33;;;;;;;3.47;54.93;94593.31;5090496;28;20058;-78
2021/03/04 06:05:22;;;;;;;46.75;19.33;;;;;;;3.51;55.12;94594.41;5091367;28;20047;-77
2021/03/04 06:07:48;;;;;;;54.88;21.15;;;;;;;3.60;54.85;94593.72;5090048;28;20028;-77
2021/03/04 06:10:15;;;;;;;46.22;19.90;;;;;;;3.64;54.60;94593.97;5090399;28;20024;-78
2021/03/04 06:12:41;;;;;;;53.05;20.42;;;;;;;3.72;54.55;94590.09;5089193;28;20024;-77
2021/03/04 06:15:08;;;;;;;52.42;22.17;;;;;;;3.81;54.48;94581.47;5089929;28;20475;-78
2021/03/04 06:17:34;;;;;;;66.32;21.55;;;;;;;3.88;54.20;94588.38;5090028;28;20410;-78
2021/03/04 06:20:01;;;;;;;64.35;23.85;;;;;;;3.85;54.75;94586.22;5090111;28;20119;-78
2021/03/04 06:22:36;;;;;;;57.75;22.60;;;;;;;3.98;54.69;94588.44;5089809;28;20403;-79
2021/03/04 06:25:10;;;;;;;65.18;22.75;;;;;;;4.03;54.51;94580.59;5089722;28;20444;-77
2021/03/04 06:27:38;;;;;;;64.70;24.42;;;;;;;4.02;54.46;94574.50;5089655;28;20024;-78
2021/03/04 06:30:09;;;;;;;65.38;24.30;;;;;;;4.04;54.49;94586.66;5089764;28;20119;-79
2021/03/04 06:32:36;;;;;;;59.53;23.67;;;;;;;4.08;54.12;94585.88;5089541;28;20430;-77
2021/03/04 06:35:12;;;;;;;60.33;24.42;;;;;;;4.09;54.20;94592.75;5090747;28;20024;-78
2021/03/04 06:37:43;;;;;;;66.82;26.63;;;;;;;4.04;54.25;94590.06;5089595;28;20055;-78
2021/03/04 06:40:21;;;;;;;70.53;25.95;;;;;;;4.12;53.92;94600.16;5089394;28;20119;-78
2021/03/04 06:42:48;;;;;;;57.88;23.70;;;;;;;4.08;53.75;94596.44;5089698;28;20023;-77
2021/03/04 06:45:27;;;;;;;63.50;23.77;;;;;;;4.14;53.55;94597.25;5089121;28;20024;-76
2021/03/04 06:48:05;;;;;;;74.03;23.77;;;;;;;4.21;53.56;94590.72;5089784;28;20023;-79
2021/03/04 06:50:31;;;;;;;71.22;25.38;;;;;;;4.27;53.43;94588.09;5089392;28;20023;-76
2021/03/04 06:52:56;;;;;;;58.95;26.75;;;;;;;4.33;53.50;94584.44;5089156;28;20489;-76
2021/03/04 06:55:21;;;;;;;53.78;24.27;;;;;;;4.42;53.63;94583.72;5089604;28;20031;-76
2021/03/04 06:58:01;;;;;;;72.45;26.25;;;;;;;4.52;53.40;94588.25;5091121;28;20027;-76
2021/03/04 07:00:27;;;;;;;77.30;25.88;;;;;;;4.56;53.29;94577.94;5090111;28;20016;-76
2021/03/04 07:02:57;;;;;;;62.53;24.95;;;;;;;4.61;53.04;94580.63;5090744;28;20019;-75
2021/03/04 07:05:26;;;;;;;78.40;28.17;;;;;;;4.72;52.79;94582.28;5089004;28;20082;-76
2021/03/04 07:07:54;;;;;;;66.68;29.15;;;;;;;4.83;52.49;94577.81;5090486;28;20483;-76
2021/03/04 07:10:20;;;;;;;68.07;28.15;;;;;;;4.92;52.49;94573.59;5088967;28;20020;-76
2021/03/04 07:12:47;;;;;;;74.07;28.05;;;;;;;4.99;52.40;94574.16;5088888;28;20024;-76
2021/03/04 07:15:17;;;;;;;73.63;28.15;;;;;;;5.05;52.24;94574.97;5090205;28;20552;-76
2021/03/04 07:17:45;;;;;;;52.92;25.73;;;;;;;5.15;51.76;94575.00;5088512;28;20139;-76
2021/03/04 07:20:17;;;;;;;61.28;24.45;;;;;;;5.23;51.23;94568.38;5088795;28;20027;-76
2021/03/04 07:22:45;;;;;;;55.97;22.95;;;;;;;5.31;50.99;94570.53;5088909;28;20031;-76
2021/03/04 07:25:15;;;;;;;61.70;22.92;;;;;;;5.35;51.23;94571.59;5089096;28;20030;-76
2021/03/04 07:27:41;;;;;;;54.45;22.80;;;;;;;5.42;50.68;94566.06;5090071;28;20097;-76
2021/03/04 07:30:08;;;;;;;59.78;22.08;;;;;;;5.51;49.98;94561.03;5088825;28;20035;-76
2021/03/04 07:32:35;;;;;;;57.03;22.05;;;;;;;5.55;50.14;94565.53;5088664;28;20368;-76
2021/03/04 07:35:09;;;;;;;51.95;20.90;;;;;;;5.63;50.04;94565.00;5088506;28;20028;-76
2021/03/04 07:37:35;;;;;;;64.50;21.83;;;;;;;5.73;49.60;94555.50;5089461;28;20032;-76
2021/03/04 07:40:01;;;;;;;54.65;21.65;;;;;;;5.85;49.32;94550.72;5088387;28;20024;-76
2021/03/04 07:42:27;;;;;;;57.30;22.23;;;;;;;5.89;49.13;94549.13;5088507;28;20038;-76
2021/03/04 07:44:53;;;;;;;50.55;21.95;;;;;;;5.93;49.03;94536.16;5089651;28;20148;-74
2021/03/04 07:47:28;;;;;;;55.08;21.15;;;;;;;6.04;49.12;94535.09;5088754;28;20080;-74
2021/03/04 07:49:55;;;;;;;39.97;18.83;;;;;;;6.20;48.54;94536.66;5089364;28;20024;-75
2021/03/04 07:52:21;;;;;;;57.08;20.75;;;;;;;6.31;49.06;94521.56;5088434;28;20035;-75
2021/03/04 07:54:52;;;;;;;50.03;20.20;;;;;;;6.46;48.67;94530.50;5089665;28;20031;-76
2021/03/04 07:57:19;;;;;;;48.85;19.42;;;;;;;6.45;48.19;94520.97;5088014;28;20169;-76
2021/03/04 08:00:08;;;;;;;49.75;19.40;;;;;;;6.62;47.80;94524.09;5087963;28;20035;-76
2021/03/04 08:02:42;;;;;;;49.13;18.48;;;;;;;6.78;46.92;94524.81;5079552;28;20036;-76
2021/03/04 08:05:33;;;;;;;40.60;18.02;;;;;;;6.82;45.85;94517.91;5087067;28;20177;-76
2021/03/04 08:08:13;;;;;;;44.75;16.65;;;;;;;6.94;46.67;94514.91;5085600;28;20123;-75
2021/03/04 08:10:54;;;;;;;43.03;17.38;;;;;;;7.02;46.38;94515.16;5087624;28;20398;-75
2021/03/04 08:13:30;;;;;;;43.13;18.15;;;;;;;7.15;45.06;94508.44;5093403;28;20048;-75
2021/03/04 08:15:56;;;;;;;37.40;17.63;;;;;;;7.28;44.41;94512.31;5093043;28;20103;-73
2021/03/04 08:18:23;;;;;;;39.47;18.65;;;;;;;7.31;44.53;94509.13;5091954;28;20134;-73
2021/03/04 08:20:51;;;;;;;40.42;17.48;;;;;;;7.33;44.92;94501.69;5092449;28;20426;-74
2021/03/04 08:23:18;;;;;;;38.55;17.90;;;;;;;7.39;45.02;94492.63;5091959;28;20016;-75
2021/03/04 08:25:44;;;;;;;41.58;18.13;;;;;;;7.47;44.55;94493.09;5093161;28;20419;-71
2021/03/04 08:28:10;;;;;;;41.50;17.73;;;;;;;7.58;44.56;94494.59;5091650;28;20032;-71
2021/03/04 08:30:42;;;;;;;42.30;20.08;;;;;;;7.70;43.57;94492.38;5091845;28;20028;-72
2021/03/04 08:33:25;;;;;;;43.10;17.25;;;;;;;7.88;43.48;94490.91;5092940;28;20061;-72
2021/03/04 08:35:51;;;;;;;39.80;17.08;;;;;;;8.02;43.19;94488.38;5092941;28;20099;-72
2021/03/04 08:38:19;;;;;;;36.03;16.25;;;;;;;8.10;42.36;94492.25;5093044;28;20063;-71
2021/03/04 08:40:53;;;;;;;39.95;16.05;;;;;;;8.21;41.66;94480.47;5093078;28;20039;-73
2021/03/04 08:43:24;;;;;;;44.13;15.88;;;;;;;8.20;41.46;94478.88;5092448;28;20024;-72
2021/03/04 08:45:58;;;;;;;43.95;16.23;;;;;;;8.28;41.25;94478.25;5092749;28;20062;-72
2021/03/04 08:48:24;;;;;;;41.15;17.30;;;;;;;8.34;41.48;94479.00;5091491;28;20055;-71
2021/03/04 08:50:52;;;;;;;31.55;16.02;;;;;;;8.48;41.82;94471.16;5092761;28;20112;-72
2021/03/04 08:53:25;;;;;;;44.95;16.02;;;;;;;8.64;41.70;94470.69;5091383;28;20016;-72
2021/03/04 08:55:55;;;;;;;41.08;15.05;;;;;;;8.80;40.82;94462.53;5091213;28;20020;-72
2021/03/04 08:58:26;;;;;;;41.00;16.83;;;;;;;8.93;40.49;94461.00;5091387;28;20388;-72
2021/03/04 09:00:56;;;;;;;32.25;16.05;;;;;;;8.97;39.80;94454.81;5091039;28;20027;-71
2021/03/04 09:03:23;;;;;;;39.45;16.30;;;;;;;9.08;40.41;94454.66;5091602;28;20028;-71
2021/03/04 09:05:49;;;;;;;32.75;15.27;;;;;;;9.13;40.63;94450.06;5092437;28;20036;-72
2021/03/04 09:08:16;;;;;;;38.17;16.17;;;;;;;9.29;40.54;94449.84;5089942;28;20585;-71
2021/03/04 09:10:49;;;;;;;43.83;17.50;;;;;;;9.42;40.55;94444.59;5092404;28;20073;-71
2021/03/04 09:13:26;;;;;;;40.90;17.17;;;;;;;9.58;38.96;94436.34;5092315;28;20024;-72
2021/03/04 09:15:55;;;;;;;32.33;16.20;;;;;;;9.62;38.83;94432.00;5091201;28;20103;-71
2021/03/04 09:18:21;;;;;;;42.63;16.60;;;;;;;9.75;38.73;94428.59;5092086;28;20388;-72
2021/03/04 09:20:48;;;;;;;81.15;20.20;;;;;;;9.84;38.51;94429.47;5091618;28;20028;-71
2021/03/04 09:23:14;;;;;;;58.50;16.33;;;;;;;9.94;38.29;94425.84;5089763;28;20024;-71
2021/03/04 09:25:41;;;;;;;38.40;16.02;;;;;;;10.07;38.50;94426.16;5091378;28;20032;-73
2021/03/04 09:28:10;;;;;;;35.92;13.65;;;;;;;10.19;38.49;94424.56;5091252;28;20028;-72
2021/03/04 09:30:36;;;;;;;37.78;14.98;;;;;;;10.34;37.41;94412.06;5091473;28;20478;-72
2021/03/04 09:33:02;;;;;;;32.58;13.85;;;;;;;10.45;37.10;94413.44;5091031;28;20016;-72
2021/03/04 09:35:27;;;;;;;38.53;15.35;;;;;;;10.56;37.13;94409.50;5089891;28;20024;-73
2021/03/04 09:37:53;;;;;;;47.28;16.23;;;;;;;10.69;37.09;94412.44;5090945;28;20109;-73
2021/03/04 09:40:36;;;;;;;41.17;15.43;;;;;;;10.80;37.23;94397.78;5090944;28;20148;-72
2021/03/04 09:43:02;;;;;;;34.83;15.05;;;;;;;10.90;36.64;94394.88;5090768;28;20035;-71
2021/03/04 09:45:27;;;;;;;35.38;15.50;;;;;;;10.99;36.50;94395.75;5090336;28;20395;-70
2021/03/04 09:47:53;;;;;;;34.88;15.43;;;;;;;11.07;36.66;94390.75;5090039;28;20023;-71
2021/03/04 09:50:27;;;;;;;33.78;14.75;;;;;;;11.21;36.52;94384.31;5089436;28;20016;-72
2021/03/04 09:53:03;;;;;;;32.63;15.02;;;;;;;11.36;36.08;94383.13;5088241;28;20054;-71
2021/03/04 09:55:55;;;;;;;39.42;14.77;;;;;;;11.42;34.47;94371.22;5088427;28;20024;-71
2021/03/04 09:58:23;;;;;;;32.35;13.43;;;;;;;11.40;34.58;94370.75;5087897;28;20052;-72
2021/03/04 10:00:57;;;;;;;33.55;14.00;;;;;;;11.44;34.43;94371.72;5090547;28;20038;-70
2021/03/04 10:03:35;;;;;;;40.70;15.05;;;;;;;11.51;34.61;94370.50;5090352;28;20085;-72
2021/03/04 10:06:01;;;;;;;33.30;14.70;;;;;;;11.58;34.50;94365.50;5088988;28;20043;-72
2021/03/04 10:08:36;;;;;;;37.40;14.55;;;;;;;11.65;34.64;94357.84;5090145;28;20111;-72
2021/03/04 10:11:02;;;;;;;32.45;14.48;;;;;;;11.74;34.98;94347.19;5090076;28;20025;-72
2021/03/04 10:13:29;;;;;;;38.47;14.10;;;;;;;11.87;35.28;94342.88;5089114;28;20396;-72
2021/03/04 10:15:55;;;;;;;44.22;14.60;;;;;;;12.02;34.97;94345.91;5089031;28;20063;-71
2021/03/04 10:18:20;;;;;;;43.50;14.82;;;;;;;12.17;34.81;94333.22;5090447;28;20447;-70
2021/03/04 10:20:46;;;;;;;40.55;13.43;;;;;;;12.31;34.17;94335.78;5090472;28;20109;-73
2021/03/04 10:23:14;;;;;;;32.22;13.48;;;;;;;12.42;32.71;94324.47;5088787;28;20384;-73
2021/03/04 10:25:40;;;;;;;39.35;13.98;;;;;;;12.44;32.74;94318.81;5090054;28;20024;-73
2021/03/04 10:28:06;;;;;;;34.30;12.85;;;;;;;12.48;33.49;94306.41;5090212;28;20391;-73
2021/03/04 10:30:32;;;;;;;26.67;11.98;;;;;;;12.65;33.10;94318.97;5089251;28;20038;-72
2021/03/04 10:33:00;;;;;;;31.33;12.93;;;;;;;12.79;33.03;94302.78;5090168;28;20054;-71
2021/03/04 10:35:26;;;;;;;40.17;13.35;;;;;;;12.91;32.59;94297.56;5086485;28;20402;-72
2021/03/04 10:37:52;;;;;;;35.22;13.77;;;;;;;13.05;32.41;94292.84;5089030;28;20024;-72
2021/03/04 10:40:19;;;;;;;36.47;13.73;;;;;;;13.22;33.10;94291.22;5087111;28;20051;-72
2021/03/04 10:42:45;;;;;;;27.30;12.75;;;;;;;13.35;32.87;94287.59;5089472;28;20405;-71
2021/03/04 10:45:13;;;;;;;43.67;13.45;;;;;;;13.45;32.28;94278.41;5088868;28;20020;-70
2021/03/04 10:47:40;;;;;;;24.95;13.10;;;;;;;13.59;31.86;94283.56;5088923;28;20031;-70
2021/03/04 10:50:08;;;;;;;26.75;13.48;;;;;;;13.71;31.20;94270.28;5089115;28;20027;-71
2021/03/04 10:52:33;;;;;;;24.83;13.02;;;;;;;13.78;31.19;94273.25;5089040;28;20383;-71
2021/03/04 10:54:59;;;;;;;32.80;12.57;;;;;;;13.90;31.00;94267.22;5089209;28;20016;-71
2021/03/04 10:57:24;;;;;;;28.77;12.85;;;;;;;14.02;30.98;94261.94;5088602;28;20028;-71
2021/03/04 10:59:50;;;;;;;31.23;13.23;;;;;;;14.12;30.80;94252.72;5088787;28;20410;-70
2021/03/04 11:02:16;;;;;;;32.53;12.55;;;;;;;14.21;30.17;94261.50;5088569;28;20023;-70
2021/03/04 11:04:41;;;;;;;23.52;11.38;;;;;;;14.30;29.67;94247.25;5088726;28;20411;-71
2021/03/04 11:07:07;;;;;;;37.78;13.05;;;;;;;14.42;30.02;94244.63;5088730;28;20023;-70
2021/03/04 11:09:33;;;;;;;28.50;12.32;;;;;;;14.50;28.87;94240.31;5088815;28;20027;-71
2021/03/04 11:11:58;;;;;;;28.92;13.25;;;;;;;14.57;28.71;94225.31;5088847;28;20028;-71
2021/03/04 11:14:24;;;;;;;34.42;12.35;;;;;;;14.67;29.07;94224.09;5087326;28;20016;-71
2021/03/04 11:16:49;;;;;;;25.48;12.18;;;;;;;14.76;28.95;94216.00;5087639;28;20016;-72
2021/03/04 11:19:15;;;;;;;34.78;13.80;;;;;;;14.90;29.12;94215.69;5087277;28;20024;-72
2021/03/04 11:21:45;;;;;;;33.83;13.18;;;;;;;14.98;28.83;94207.56;5086881;28;20034;-71
2021/03/04 11:24:11;;;;;;;34.92;12.98;;;;;;;15.07;28.13;94210.13;5086561;28;20027;-71
2021/03/04 11:26:38;;;;;;;34.45;12.93;;;;;;;15.19;27.66;94194.06;5085076;28;20030;-71
2021/03/04 11:29:07;;;;;;;31.02;12.25;;;;;;;15.33;27.73;94188.38;5085460;28;20023;-72